Time;durP1;ratioP1;P1;durP2;ratioP2;P2;SDS_P1;SDS_P2;PMS_P1;PMS_P2;Temp;Humidity;BMP_temperature;BMP_pressure;BME280_temperature;BME280_humidity;BME280_pressure;Samples;Min_cycle;Max_cycle;Signal;HPM_P1;HPM_P2
2022/03/02 00:02:22;;;;;;;14.32;7.28;;;;;;;;;;5093870;28;20020;-42
2022/03/02 00:04:47;;;;;;;11.80;6.60;;;;;;;;;;5092461;28;20030;-42
2022/03/02 00:07:13;;;;;;;19.23;6.97;;;;;;;;;;5093899;28;20024;-42
2022/03/02 00:09:39;;;;;;;19.33;7.60;;;;;;;;;;5093741;28;20016;-42
2022/03/02 00:12:04;;;;;;;16.85;8.45;;;;;;;;;;5092380;28;20035;-42
2022/03/02 00:14:30;;;;;;;15.05;7.10;;;;;;;;;;5093411;28;20024;-44
2022/03/02 00:16:55;;;;;;;12.85;6.57;;;;;;;;;;5093762;28;20073;-42
2022/03/02 00:19:21;;;;;;;14.23;6.53;;;;;;;;;;5093703;28;20368;-41
2022/03/02 00:21:46;;;;;;;15.68;6.43;;;;;;;;;;5093484;28;20017;-41
2022/03/02 00:24:12;;;;;;;10.55;5.07;;;;;;;;;;5093478;28;20020;-42
2022/03/02 00:26:38;;;;;;;9.70;5.32;;;;;;;;;;5093205;28;20036;-42
2022/03/02 00:29:05;;;;;;;9.35;3.40;;;;;;;;;;5093600;28;20111;-41
2022/03/02 00:31:31;;;;;;;4.40;3.35;;;;;;;;;;5093292;28;20020;-41
2022/03/02 00:33:57;;;;;;;4.28;2.58;;;;;;;;;;5093270;28;20024;-41
2022/03/02 00:36:22;;;;;;;9.80;4.85;;;;;;;;;;5093165;28;20038;-41
2022/03/02 00:38:48;;;;;;;11.52;5.10;;;;;;;;;;5092954;28;20020;-41
2022/03/02 00:41:13;;;;;;;14.63;6.57;;;;;;;;;;5093450;28;20028;-41
2022/03/02 00:43:39;;;;;;;12.60;6.40;;;;;;;;;;5092432;28;20070;-41
2022/03/02 00:46:04;;;;;;;11.60;6.05;;;;;;;;;;5092903;28;20028;-41
2022/03/02 00:48:30;;;;;;;19.35;6.95;;;;;;;;;;5093098;28;20028;-41
2022/03/02 00:50:56;;;;;;;12.63;6.10;;;;;;;;;;5093193;28;20124;-41
2022/03/02 00:53:22;;;;;;;10.88;6.18;;;;;;;;;;5093202;28;20659;-41
2022/03/02 00:55:48;;;;;;;13.93;7.00;;;;;;;;;;5092857;28;20030;-41
2022/03/02 00:58:13;;;;;;;15.52;7.65;;;;;;;;;;5093043;28;20081;-41
2022/03/02 01:00:39;;;;;;;13.68;5.75;;;;;;;;;;5092836;28;20031;-41
2022/03/02 01:03:05;;;;;;;14.63;5.30;;;;;;;;;;5092836;28;20356;-41
2022/03/02 01:05:31;;;;;;;12.48;5.78;;;;;;;;;;5092634;28;20035;-41
2022/03/02 01:07:56;;;;;;;13.85;6.68;;;;;;;;;;5093001;28;20039;-41
2022/03/02 01:10:22;;;;;;;13.57;7.00;;;;;;;;;;5092647;28;20475;-42
2022/03/02 01:12:48;;;;;;;13.35;6.15;;;;;;;;;;5092517;28;20052;-41
2022/03/02 01:15:14;;;;;;;18.08;7.45;;;;;;;;;;5092476;28;20043;-41
2022/03/02 01:17:40;;;;;;;15.80;7.47;;;;;;;;;;5092501;28;20036;-41
2022/03/02 01:20:08;;;;;;;16.80;7.90;;;;;;;;;;5092592;28;20353;-41
2022/03/02 01:22:34;;;;;;;19.20;8.85;;;;;;;;;;5091262;28;20104;-41
2022/03/02 01:25:00;;;;;;;19.58;8.50;;;;;;;;;;5092444;28;20024;-41
2022/03/02 01:27:26;;;;;;;18.45;9.25;;;;;;;;;;5092510;28;20085;-41
2022/03/02 01:29:52;;;;;;;16.90;8.48;;;;;;;;;;5092720;28;20021;-41
2022/03/02 01:32:18;;;;;;;19.13;8.23;;;;;;;;;;5092658;28;20024;-41
2022/03/02 01:34:44;;;;;;;17.80;8.48;;;;;;;;;;5092427;28;20107;-41
2022/03/02 01:37:10;;;;;;;18.05;7.90;;;;;;;;;;5092332;28;20456;-41
2022/03/02 01:39:35;;;;;;;9.82;5.78;;;;;;;;;;5092362;28;20036;-41
2022/03/02 01:42:01;;;;;;;13.02;6.15;;;;;;;;;;5092338;28;20028;-41
2022/03/02 01:44:27;;;;;;;22.95;7.18;;;;;;;;;;5092308;28;20035;-42
2022/03/02 01:46:52;;;;;;;14.55;6.47;;;;;;;;;;5092313;28;20020;-42
2022/03/02 01:49:18;;;;;;;15.57;5.63;;;;;;;;;;5092295;28;20024;-41
2022/03/02 01:51:44;;;;;;;7.85;4.03;;;;;;;;;;5090937;28;20063;-41
2022/03/02 01:54:10;;;;;;;2.10;1.58;;;;;;;;;;5092228;28;20030;-41
2022/03/02 01:56:36;;;;;;;14.25;3.53;;;;;;;;;;5095271;28;20027;-40
2022/03/02 01:59:04;;;;;;;7.93;3.45;;;;;;;;;;5096155;28;20036;-41
2022/03/02 02:01:31;;;;;;;11.65;5.90;;;;;;;;;;5096188;28;20031;-40
2022/03/02 02:03:57;;;;;;;12.25;3.95;;;;;;;;;;5096055;28;20020;-41
2022/03/02 02:06:23;;;;;;;14.68;8.00;;;;;;;;;;5096104;28;20023;-40
2022/03/02 02:08:48;;;;;;;16.40;6.75;;;;;;;;;;5095938;28;20536;-41
2022/03/02 02:11:14;;;;;;;13.48;6.32;;;;;;;;;;5096026;28;20106;-40
2022/03/02 02:13:40;;;;;;;13.70;7.03;;;;;;;;;;5096076;28;20368;-41
2022/03/02 02:16:07;;;;;;;18.42;7.53;;;;;;;;;;5095648;28;20098;-42
2022/03/02 02:18:34;;;;;;;14.95;8.27;;;;;;;;;;5096005;28;20035;-41
2022/03/02 02:21:04;;;;;;;11.10;5.82;;;;;;;;;;5095852;28;20089;-40
2022/03/02 02:23:30;;;;;;;14.90;6.82;;;;;;;;;;5095689;28;20085;-41
2022/03/02 02:25:56;;;;;;;12.90;7.03;;;;;;;;;;5095801;28;20024;-40
2022/03/02 02:28:24;;;;;;;15.70;7.47;;;;;;;;;;5095697;28;20099;-41
2022/03/02 02:30:53;;;;;;;17.13;7.53;;;;;;;;;;5095524;28;20024;-41
2022/03/02 02:33:19;;;;;;;17.58;7.53;;;;;;;;;;5095620;28;20016;-41
2022/03/02 02:35:44;;;;;;;19.50;8.10;;;;;;;;;;5095503;28;20031;-42
2022/03/02 02:38:10;;;;;;;18.00;7.45;;;;;;;;;;5095750;28;20523;-41
2022/03/02 02:40:36;;;;;;;21.25;8.27;;;;;;;;;;5095464;28;20556;-42
2022/03/02 02:43:02;;;;;;;13.05;6.55;;;;;;;;;;5095314;28;20051;-41
2022/03/02 02:45:27;;;;;;;10.63;5.75;;;;;;;;;;5095387;28;20054;-41
2022/03/02 02:47:55;;;;;;;10.55;5.43;;;;;;;;;;5093994;28;20056;-42
2022/03/02 02:50:32;;;;;;;13.13;6.90;;;;;;;;;;5095257;28;20081;-41
2022/03/02 02:53:00;;;;;;;12.10;7.10;;;;;;;;;;5095204;28;20050;-41
2022/03/02 02:55:27;;;;;;;9.68;5.55;;;;;;;;;;5095062;28;20024;-41
2022/03/02 02:57:54;;;;;;;23.02;6.40;;;;;;;;;;5095318;28;20032;-41
2022/03/02 03:00:22;;;;;;;11.48;6.38;;;;;;;;;;5095375;28;20056;-40
2022/03/02 03:02:49;;;;;;;12.60;5.68;;;;;;;;;;5094974;28;20477;-41
2022/03/02 03:05:18;;;;;;;16.40;7.68;;;;;;;;;;5095237;28;20099;-41
2022/03/02 03:07:45;;;;;;;16.67;8.07;;;;;;;;;;5094712;28;20028;-42
2022/03/02 03:10:12;;;;;;;13.48;6.53;;;;;;;;;;5094921;28;20090;-41
2022/03/02 03:12:38;;;;;;;17.92;7.68;;;;;;;;;;5095518;28;20026;-41
2022/03/02 03:15:05;;;;;;;16.48;7.10;;;;;;;;;;5094732;28;20044;-41
2022/03/02 03:17:30;;;;;;;9.13;5.28;;;;;;;;;;5094941;28;20127;-40
2022/03/02 03:19:56;;;;;;;17.35;7.45;;;;;;;;;;5094916;28;20099;-41
2022/03/02 03:22:22;;;;;;;17.73;8.32;;;;;;;;;;5094880;28;20027;-40
2022/03/02 03:24:48;;;;;;;18.63;8.68;;;;;;;;;;5094565;28;20020;-41
2022/03/02 03:27:13;;;;;;;21.27;8.90;;;;;;;;;;5094718;28;20016;-41
2022/03/02 03:29:39;;;;;;;18.20;8.23;;;;;;;;;;5094527;28;20484;-41
2022/03/02 03:32:06;;;;;;;14.18;7.43;;;;;;;;;;5093260;28;20024;-41
2022/03/02 03:34:31;;;;;;;13.80;8.18;;;;;;;;;;5094613;28;20107;-41
2022/03/02 03:36:57;;;;;;;16.45;9.15;;;;;;;;;;5094223;28;20149;-40
2022/03/02 03:39:23;;;;;;;20.92;7.18;;;;;;;;;;5094265;28;20056;-41
2022/03/02 03:41:48;;;;;;;13.15;7.55;;;;;;;;;;5094234;28;20028;-41
2022/03/02 03:44:14;;;;;;;13.75;7.18;;;;;;;;;;5094257;28;20035;-41
2022/03/02 03:46:40;;;;;;;16.10;7.45;;;;;;;;;;5094087;28;20476;-40
2022/03/02 03:49:05;;;;;;;15.35;6.05;;;;;;;;;;5094347;28;20056;-42
2022/03/02 03:51:31;;;;;;;24.25;8.07;;;;;;;;;;5094360;28;20024;-41
2022/03/02 03:53:57;;;;;;;18.20;8.15;;;;;;;;;;5094309;28;20379;-40
2022/03/02 03:56:22;;;;;;;22.60;6.80;;;;;;;;;;5094203;28;20035;-40
2022/03/02 03:58:48;;;;;;;12.90;7.40;;;;;;;;;;5092616;28;20039;-42
2022/03/02 04:01:14;;;;;;;18.90;8.52;;;;;;;;;;5094071;28;20115;-41
2022/03/02 04:03:40;;;;;;;22.67;8.13;;;;;;;;;;5094126;28;20028;-41
2022/03/02 04:06:06;;;;;;;17.73;8.18;;;;;;;;;;5093761;28;20472;-41
2022/03/02 04:08:31;;;;;;;12.98;5.72;;;;;;;;;;5093997;28;20482;-41
2022/03/02 04:10:57;;;;;;;20.20;8.77;;;;;;;;;;5094090;28;20395;-41
2022/03/02 04:13:22;;;;;;;15.20;7.10;;;;;;;;;;5093583;28;20028;-42
2022/03/02 04:15:48;;;;;;;19.75;8.13;;;;;;;;;;5093374;28;20044;-41
2022/03/02 04:18:16;;;;;;;13.90;6.88;;;;;;;;;;5092891;28;20066;-41
2022/03/02 04:20:42;;;;;;;19.63;7.88;;;;;;;;;;5092952;28;20032;-42
2022/03/02 04:23:10;;;;;;;17.55;8.15;;;;;;;;;;5093467;28;20024;-41
2022/03/02 04:25:36;;;;;;;18.17;8.70;;;;;;;;;;5093648;28;20103;-41
2022/03/02 04:28:02;;;;;;;18.20;7.35;;;;;;;;;;5093317;28;20020;-41
2022/03/02 04:30:29;;;;;;;16.67;8.18;;;;;;;;;;5093400;28;20024;-41
2022/03/02 04:32:55;;;;;;;14.95;7.05;;;;;;;;;;5093026;28;20031;-42
2022/03/02 04:35:20;;;;;;;16.48;7.65;;;;;;;;;;5093497;28;20020;-41
2022/03/02 04:37:46;;;;;;;16.45;8.13;;;;;;;;;;5093366;28;20031;-41
2022/03/02 04:40:12;;;;;;;15.93;7.82;;;;;;;;;;5093091;28;20028;-41
2022/03/02 04:42:38;;;;;;;20.10;8.68;;;;;;;;;;5093190;28;20020;-41
2022/03/02 04:45:05;;;;;;;21.45;9.00;;;;;;;;;;5093052;28;20089;-41
2022/03/02 04:47:31;;;;;;;24.17;8.38;;;;;;;;;;5092911;28;20546;-42
2022/03/02 04:49:56;;;;;;;15.75;8.45;;;;;;;;;;5093020;28;20494;-41
2022/03/02 04:52:22;;;;;;;17.45;8.75;;;;;;;;;;5092848;28;20036;-41
2022/03/02 04:55:06;;;;;;;15.52;7.65;;;;;;;;;;5093184;28;20416;-41
2022/03/02 04:57:34;;;;;;;13.00;6.75;;;;;;;;;;5092703;28;20028;-40
2022/03/02 04:59:59;;;;;;;21.58;7.28;;;;;;;;;;5092788;28;20047;-40
2022/03/02 05:02:25;;;;;;;21.52;8.75;;;;;;;;;;5092771;28;20059;-40
2022/03/02 05:04:50;;;;;;;20.73;8.45;;;;;;;;;;5091415;28;20053;-41
2022/03/02 05:07:16;;;;;;;18.60;8.25;;;;;;;;;;5092853;28;20024;-41
2022/03/02 05:09:43;;;;;;;18.25;8.20;;;;;;;;;;5092625;28;20027;-42
2022/03/02 05:12:09;;;;;;;11.18;7.30;;;;;;;;;;5092726;28;20032;-43
2022/03/02 05:14:34;;;;;;;25.73;9.25;;;;;;;;;;5092412;28;20089;-40
2022/03/02 05:17:00;;;;;;;18.90;9.07;;;;;;;;;;5092490;28;20081;-40
2022/03/02 05:19:26;;;;;;;16.65;8.98;;;;;;;;;;5092717;28;20533;-40
2022/03/02 05:21:51;;;;;;;11.02;5.68;;;;;;;;;;5092539;28;20372;-40
2022/03/02 05:24:17;;;;;;;12.35;7.25;;;;;;;;;;5092737;28;20020;-41
2022/03/02 05:26:43;;;;;;;20.05;8.98;;;;;;;;;;5091071;28;20490;-41
2022/03/02 05:29:08;;;;;;;23.17;8.13;;;;;;;;;;5092605;28;20433;-40
2022/03/02 05:31:34;;;;;;;17.95;7.32;;;;;;;;;;5091898;28;20546;-41
2022/03/02 05:34:00;;;;;;;18.55;7.13;;;;;;;;;;5092424;28;20031;-41
2022/03/02 05:36:26;;;;;;;20.15;7.72;;;;;;;;;;5092504;28;20027;-40
2022/03/02 05:38:52;;;;;;;20.27;7.90;;;;;;;;;;5091385;28;20428;-40
2022/03/02 05:41:18;;;;;;;16.73;7.88;;;;;;;;;;5092167;28;20118;-40
2022/03/02 05:43:45;;;;;;;17.83;8.43;;;;;;;;;;5092290;28;20060;-40
2022/03/02 05:46:11;;;;;;;13.45;8.07;;;;;;;;;;5092525;28;20028;-40
2022/03/02 05:48:37;;;;;;;18.55;8.88;;;;;;;;;;5092231;28;20077;-41
2022/03/02 05:51:03;;;;;;;16.73;8.95;;;;;;;;;;5092172;28;20035;-41
2022/03/02 05:53:29;;;;;;;19.58;8.32;;;;;;;;;;5092465;28;20020;-41
2022/03/02 05:55:55;;;;;;;17.38;8.02;;;;;;;;;;5092406;28;20016;-40
2022/03/02 05:58:21;;;;;;;14.68;8.38;;;;;;;;;;5092197;28;20078;-41
2022/03/02 06:00:46;;;;;;;23.08;8.27;;;;;;;;;;5092156;28;20097;-40
2022/03/02 06:03:13;;;;;;;19.70;9.50;;;;;;;;;;5092361;28;20039;-41
2022/03/02 06:05:40;;;;;;;28.15;9.82;;;;;;;;;;5092427;28;20028;-41
2022/03/02 06:08:07;;;;;;;23.52;10.95;;;;;;;;;;5092034;28;20032;-42
2022/03/02 06:10:34;;;;;;;33.45;15.05;;;;;;;;;;5091993;28;20024;-43
2022/03/02 06:13:00;;;;;;;35.30;15.52;;;;;;;;;;5090797;28;20494;-45
2022/03/02 06:15:26;;;;;;;32.33;14.85;;;;;;;;;;5091833;28;20480;-45
2022/03/02 06:17:52;;;;;;;31.60;15.35;;;;;;;;;;5091962;28;20070;-44
2022/03/02 06:20:18;;;;;;;38.97;16.63;;;;;;;;;;5091680;28;20490;-43
2022/03/02 06:22:44;;;;;;;29.65;14.98;;;;;;;;;;5091001;28;20252;-43
2022/03/02 06:25:10;;;;;;;28.00;13.25;;;;;;;;;;5091936;28;20016;-46
2022/03/02 06:27:36;;;;;;;29.33;11.23;;;;;;;;;;5091519;28;20027;-45
2022/03/02 06:30:04;;;;;;;26.00;11.15;;;;;;;;;;5091870;28;20028;-39
2022/03/02 06:32:31;;;;;;;16.58;8.73;;;;;;;;;;5091083;28;20168;-44
2022/03/02 06:34:58;;;;;;;20.77;9.02;;;;;;;;;;5091266;28;20482;-40
2022/03/02 06:37:24;;;;;;;17.20;8.13;;;;;;;;;;5091438;28;20173;-42
2022/03/02 06:39:49;;;;;;;15.13;8.73;;;;;;;;;;5090466;28;20487;-39
2022/03/02 06:42:23;;;;;;;14.63;8.10;;;;;;;;;;5092728;28;20107;-42
2022/03/02 06:45:06;;;;;;;19.10;9.13;;;;;;;;;;5090647;28;20035;-42
2022/03/02 06:47:41;;;;;;;15.75;8.55;;;;;;;;;;5093915;28;20077;-44
2022/03/02 06:50:09;;;;;;;14.38;8.15;;;;;;;;;;5093631;28;20024;-42
2022/03/02 06:52:43;;;;;;;12.48;7.70;;;;;;;;;;5093473;28;20475;-42
2022/03/02 06:55:18;;;;;;;17.23;9.00;;;;;;;;;;5093650;28;20028;-42
2022/03/02 06:57:51;;;;;;;16.02;8.27;;;;;;;;;;5093526;28;20491;-44
2022/03/02 07:00:18;;;;;;;17.67;9.40;;;;;;;;;;5093661;28;20059;-43
2022/03/02 07:02:48;;;;;;;17.98;8.93;;;;;;;;;;5093357;28;20583;-43
2022/03/02 07:05:14;;;;;;;18.27;10.13;;;;;;;;;;5093527;28;20039;-42
2022/03/02 07:07:40;;;;;;;16.50;9.60;;;;;;;;;;5093631;28;20024;-42
2022/03/02 07:10:07;;;;;;;16.30;9.85;;;;;;;;;;5093211;28;20031;-45
2022/03/02 07:12:33;;;;;;;16.75;9.60;;;;;;;;;;5093449;28;20034;-45
2022/03/02 07:14:59;;;;;;;16.30;9.70;;;;;;;;;;5092679;28;20047;-44
2022/03/02 07:17:26;;;;;;;17.15;9.85;;;;;;;;;;5092677;28;20077;-46
2022/03/02 07:19:53;;;;;;;18.70;11.50;;;;;;;;;;5093090;28;20026;-41
2022/03/02 07:22:22;;;;;;;21.58;9.98;;;;;;;;;;5092820;28;20020;-43
2022/03/02 07:24:54;;;;;;;15.75;9.13;;;;;;;;;;5093060;28;20082;-44
2022/03/02 07:27:21;;;;;;;27.67;9.23;;;;;;;;;;5092949;28;20472;-44
2022/03/02 07:29:53;;;;;;;22.67;9.68;;;;;;;;;;5092954;28;20119;-43
2022/03/02 07:32:25;;;;;;;17.42;9.48;;;;;;;;;;5093072;28;20034;-44
2022/03/02 07:34:56;;;;;;;24.70;9.15;;;;;;;;;;5093809;28;21006;-42
2022/03/02 07:37:23;;;;;;;15.95;8.80;;;;;;;;;;5093672;28;20381;-40
2022/03/02 07:39:50;;;;;;;14.55;7.93;;;;;;;;;;5093311;28;20032;-41
2022/03/02 07:42:16;;;;;;;18.52;8.80;;;;;;;;;;5093503;28;20055;-40
2022/03/02 07:44:41;;;;;;;16.25;9.25;;;;;;;;;;5093508;28;20357;-41
2022/03/02 07:47:08;;;;;;;21.90;9.82;;;;;;;;;;5093084;28;20085;-41
2022/03/02 07:49:35;;;;;;;21.65;9.20;;;;;;;;;;5093070;28;20078;-40
2022/03/02 07:52:02;;;;;;;17.27;8.52;;;;;;;;;;5093141;28;20087;-41
2022/03/02 07:54:30;;;;;;;13.63;8.60;;;;;;;;;;5092865;28;20504;-40
2022/03/02 07:56:57;;;;;;;14.55;8.90;;;;;;;;;;5092890;28;20063;-42
2022/03/02 07:59:23;;;;;;;12.93;7.18;;;;;;;;;;5093074;28;20047;-40
2022/03/02 08:01:50;;;;;;;15.98;8.13;;;;;;;;;;5092863;28;20488;-41
2022/03/02 08:04:16;;;;;;;13.18;7.18;;;;;;;;;;5092739;28;20024;-45
2022/03/02 08:06:41;;;;;;;14.18;8.18;;;;;;;;;;5092611;28;20027;-42
2022/03/02 08:09:09;;;;;;;14.30;7.47;;;;;;;;;;5092582;28;20471;-43
2022/03/02 08:11:37;;;;;;;13.75;8.10;;;;;;;;;;5092471;28;20097;-40
2022/03/02 08:14:04;;;;;;;14.70;7.65;;;;;;;;;;5092491;28;20052;-46
2022/03/02 08:16:30;;;;;;;11.98;7.57;;;;;;;;;;5092135;28;20048;-44
2022/03/02 08:19:00;;;;;;;14.27;7.05;;;;;;;;;;5092425;28;20058;-40
2022/03/02 08:21:29;;;;;;;11.77;7.45;;;;;;;;;;5092566;28;20028;-40
2022/03/02 08:23:57;;;;;;;12.93;7.72;;;;;;;;;;5092203;28;20067;-45
2022/03/02 08:26:24;;;;;;;20.38;8.07;;;;;;;;;;5092291;28;20028;-42
2022/03/02 08:28:55;;;;;;;15.02;8.50;;;;;;;;;;5092141;28;20032;-41
2022/03/02 08:31:22;;;;;;;15.02;8.30;;;;;;;;;;5092274;28;20055;-41
2022/03/02 08:33:49;;;;;;;14.13;9.15;;;;;;;;;;5090804;28;20169;-43
2022/03/02 08:36:15;;;;;;;17.38;8.85;;;;;;;;;;5091860;28;20436;-46
2022/03/02 08:38:42;;;;;;;14.23;8.70;;;;;;;;;;5092240;28;20047;-46
2022/03/02 08:41:12;;;;;;;15.43;7.82;;;;;;;;;;5090815;28;20158;-41
2022/03/02 08:43:37;;;;;;;14.52;8.15;;;;;;;;;;5091223;28;20035;-44
2022/03/02 08:46:07;;;;;;;11.52;7.30;;;;;;;;;;5090117;28;20036;-44
2022/03/02 08:48:32;;;;;;;18.10;7.78;;;;;;;;;;5090215;28;20097;-44
2022/03/02 08:51:00;;;;;;;16.02;8.35;;;;;;;;;;5091611;28;20739;-42
2022/03/02 08:53:26;;;;;;;12.32;7.32;;;;;;;;;;5091518;28;20024;-41
2022/03/02 08:55:53;;;;;;;15.73;7.68;;;;;;;;;;5089963;28;20032;-43
2022/03/02 08:58:19;;;;;;;11.90;7.47;;;;;;;;;;5091265;28;20032;-40
2022/03/02 09:00:46;;;;;;;14.68;8.35;;;;;;;;;;5091457;28;20094;-40
2022/03/02 09:03:15;;;;;;;12.93;7.78;;;;;;;;;;5091292;28;20032;-46
2022/03/02 09:05:41;;;;;;;14.75;8.05;;;;;;;;;;5089503;28;20437;-42
2022/03/02 09:08:08;;;;;;;15.60;8.32;;;;;;;;;;5091094;28;20024;-41
2022/03/02 09:10:36;;;;;;;10.35;6.32;;;;;;;;;;5091316;28;20034;-43
2022/03/02 09:13:02;;;;;;;12.10;7.18;;;;;;;;;;5090698;28;20090;-42
2022/03/02 09:15:28;;;;;;;12.77;6.40;;;;;;;;;;5090230;28;20176;-43
2022/03/02 09:17:55;;;;;;;13.10;7.03;;;;;;;;;;5091024;28;20036;-41
2022/03/02 09:20:23;;;;;;;11.63;6.80;;;;;;;;;;5090913;28;20024;-42
2022/03/02 09:22:50;;;;;;;10.43;6.53;;;;;;;;;;5091289;28;20028;-42
2022/03/02 09:25:15;;;;;;;12.25;7.15;;;;;;;;;;5091174;28;20080;-40
2022/03/02 09:27:42;;;;;;;7.57;4.85;;;;;;;;;;5090756;28;20020;-41
2022/03/02 09:30:10;;;;;;;12.38;6.90;;;;;;;;;;5091178;28;20051;-42
2022/03/02 09:32:40;;;;;;;8.73;4.65;;;;;;;;;;5090688;28;20376;-42
2022/03/02 09:35:10;;;;;;;13.73;7.72;;;;;;;;;;5090521;28;20437;-42
2022/03/02 09:37:37;;;;;;;;;;;;;;;;;;5088463;28;20035;-44
2022/03/02 09:40:04;;;;;;;15.52;7.95;;;;;;;;;;5090260;28;19945;-45
2022/03/02 09:42:35;;;;;;;14.50;8.35;;;;;;;;;;5090100;28;20446;-43
2022/03/02 09:45:08;;;;;;;16.63;8.20;;;;;;;;;;5089984;28;20491;-44
2022/03/02 09:47:45;;;;;;;17.52;8.90;;;;;;;;;;5090969;28;20031;-46
2022/03/02 09:50:13;;;;;;;10.13;6.85;;;;;;;;;;5090637;28;20027;-41
2022/03/02 09:52:40;;;;;;;17.92;8.18;;;;;;;;;;5090936;28;20407;-42
2022/03/02 09:55:12;;;;;;;17.02;9.10;;;;;;;;;;5090358;28;20020;-42
2022/03/02 09:57:45;;;;;;;15.93;8.52;;;;;;;;;;5087409;28;20420;-42
2022/03/02 10:00:14;;;;;;;15.82;8.20;;;;;;;;;;5090613;28;20075;-41
2022/03/02 10:02:45;;;;;;;16.75;8.13;;;;;;;;;;5090518;28;20641;-40
2022/03/02 10:05:18;;;;;;;13.05;7.68;;;;;;;;;;5090451;28;20483;-42
2022/03/02 10:08:02;;;;;;;23.23;11.32;;;;;;;;;;5090121;28;20492;-44
2022/03/02 10:10:31;;;;;;;17.30;9.10;;;;;;;;;;5089470;28;20051;-41
2022/03/02 10:12:59;;;;;;;13.43;7.90;;;;;;;;;;5090600;28;20375;-40
2022/03/02 10:15:26;;;;;;;14.45;8.18;;;;;;;;;;5090075;28;20531;-41
2022/03/02 10:17:54;;;;;;;16.73;7.93;;;;;;;;;;5093932;28;20071;-43
2022/03/02 10:20:28;;;;;;;12.90;7.50;;;;;;;;;;5094076;28;20024;-41
2022/03/02 10:23:04;;;;;;;11.23;7.50;;;;;;;;;;5094288;28;20115;-40
2022/03/02 10:26:03;;;;;;;13.80;7.28;;;;;;;;;;5093779;28;20637;-42
2022/03/02 10:28:51;;;;;;;11.77;7.25;;;;;;;;;;5094478;28;20052;-43
2022/03/02 10:31:43;;;;;;;12.18;7.43;;;;;;;;;;5093795;28;20077;-40
2022/03/02 10:34:28;;;;;;;13.32;7.53;;;;;;;;;;5094059;28;20027;-44
2022/03/02 10:37:10;;;;;;;11.93;7.32;;;;;;;;;;5093802;28;20040;-44
2022/03/02 10:39:44;;;;;;;11.68;7.22;;;;;;;;;;5093774;28;20038;-41
2022/03/02 10:42:19;;;;;;;13.05;7.80;;;;;;;;;;5093796;28;20107;-41
2022/03/02 10:45:12;;;;;;;14.70;7.57;;;;;;;;;;5092143;28;20043;-41
2022/03/02 10:48:10;;;;;;;13.60;7.55;;;;;;;;;;5092289;28;20031;-40
2022/03/02 10:50:37;;;;;;;12.57;7.97;;;;;;;;;;5090667;28;20085;-40
2022/03/02 10:53:07;;;;;;;10.57;7.05;;;;;;;;;;5093403;28;20038;-39
2022/03/02 10:55:34;;;;;;;13.05;7.03;;;;;;;;;;5093579;28;20077;-40
2022/03/02 10:58:02;;;;;;;16.13;7.30;;;;;;;;;;5091352;28;20035;-45
2022/03/02 11:00:28;;;;;;;15.73;8.25;;;;;;;;;;5090283;28;20486;-41
2022/03/02 11:02:57;;;;;;;11.55;7.53;;;;;;;;;;5093106;28;20031;-40
2022/03/02 11:05:24;;;;;;;13.10;7.93;;;;;;;;;;5092952;28;20547;-40
2022/03/02 11:07:51;;;;;;;12.27;8.05;;;;;;;;;;5093327;28;20028;-43
2022/03/02 11:10:20;;;;;;;11.98;6.55;;;;;;;;;;5093442;28;20036;-44
2022/03/02 11:12:47;;;;;;;19.38;10.38;;;;;;;;;;5091826;28;20024;-41
2022/03/02 11:15:15;;;;;;;13.40;8.20;;;;;;;;;;5092907;28;20123;-40
2022/03/02 11:17:52;;;;;;;12.45;7.28;;;;;;;;;;5092948;28;20024;-40
2022/03/02 11:20:19;;;;;;;13.30;6.90;;;;;;;;;;5092287;28;20031;-40
2022/03/02 11:22:57;;;;;;;12.63;6.82;;;;;;;;;;5093540;28;20032;-42
2022/03/02 11:25:49;;;;;;;12.90;7.22;;;;;;;;;;5093561;28;20036;-40
2022/03/02 11:28:18;;;;;;;10.23;6.40;;;;;;;;;;5084062;28;20039;-42
2022/03/02 11:31:04;;;;;;;13.23;7.53;;;;;;;;;;5093582;28;20076;-41
2022/03/02 11:33:30;;;;;;;11.35;7.90;;;;;;;;;;5093456;28;20065;-40
2022/03/02 11:36:02;;;;;;;12.90;7.63;;;;;;;;;;5093125;28;20027;-40
2022/03/02 11:38:31;;;;;;;11.82;6.82;;;;;;;;;;5093315;28;20028;-41
2022/03/02 11:40:56;;;;;;;9.63;6.82;;;;;;;;;;5093135;28;20288;-42
2022/03/02 11:43:32;;;;;;;11.00;6.63;;;;;;;;;;5093084;28;20852;-40
2022/03/02 11:46:03;;;;;;;11.13;7.65;;;;;;;;;;5093042;28;20102;-42
2022/03/02 11:48:32;;;;;;;11.48;7.40;;;;;;;;;;5092931;28;20027;-42
2022/03/02 11:51:23;;;;;;;14.52;7.15;;;;;;;;;;5091724;28;20383;-41
2022/03/02 11:53:56;;;;;;;9.27;6.95;;;;;;;;;;5092763;28;20032;-41
2022/03/02 11:56:24;;;;;;;11.40;7.05;;;;;;;;;;5092681;28;20396;-40
2022/03/02 11:59:01;;;;;;;12.70;6.95;;;;;;;;;;5092625;28;20024;-42
2022/03/02 12:01:39;;;;;;;12.63;6.90;;;;;;;;;;5091307;28;20031;-40
2022/03/02 12:04:06;;;;;;;14.30;7.78;;;;;;;;;;5092406;28;20036;-43
2022/03/02 12:06:48;;;;;;;12.70;7.00;;;;;;;;;;5092110;28;20098;-42
2022/03/02 12:09:35;;;;;;;9.98;6.85;;;;;;;;;;5090230;28;20119;-41
2022/03/02 12:12:21;;;;;;;12.98;6.57;;;;;;;;;;5092292;28;20135;-46
2022/03/02 12:14:57;;;;;;;13.93;6.93;;;;;;;;;;5092148;28;20104;-40
2022/03/02 12:17:24;;;;;;;10.32;6.88;;;;;;;;;;5092344;28;20032;-40
2022/03/02 12:19:57;;;;;;;30.33;7.00;;;;;;;;;;5091108;28;20387;-40
2022/03/02 12:22:25;;;;;;;15.38;6.85;;;;;;;;;;5092107;28;20028;-39
2022/03/02 12:24:51;;;;;;;11.32;6.78;;;;;;;;;;5091973;28;20024;-40
2022/03/02 12:27:17;;;;;;;12.55;7.20;;;;;;;;;;5090985;28;20031;-40
2022/03/02 12:29:45;;;;;;;13.07;7.45;;;;;;;;;;5092024;28;20411;-41
2022/03/02 12:32:21;;;;;;;13.27;7.85;;;;;;;;;;5092087;28;20447;-40
2022/03/02 12:34:52;;;;;;;14.10;7.15;;;;;;;;;;5091728;28;20059;-40
2022/03/02 12:37:20;;;;;;;14.13;7.90;;;;;;;;;;5091785;28;20035;-39
2022/03/02 12:39:47;;;;;;;25.73;7.75;;;;;;;;;;5090789;28;20422;-41
2022/03/02 12:42:14;;;;;;;9.52;6.78;;;;;;;;;;5091592;28;20080;-46
2022/03/02 12:44:44;;;;;;;13.68;7.97;;;;;;;;;;5091527;28;20035;-42
2022/03/02 12:47:25;;;;;;;21.88;7.45;;;;;;;;;;5091488;28;20417;-42
2022/03/02 12:49:52;;;;;;;15.20;7.50;;;;;;;;;;5091101;28;20035;-41
2022/03/02 12:52:21;;;;;;;10.15;6.10;;;;;;;;;;5090936;28;20016;-39
2022/03/02 12:54:52;;;;;;;11.57;7.43;;;;;;;;;;5090853;28;20412;-39
2022/03/02 12:57:20;;;;;;;13.18;7.47;;;;;;;;;;5088551;28;20703;-41
2022/03/02 12:59:46;;;;;;;11.93;7.13;;;;;;;;;;5091244;28;20407;-40
2022/03/02 13:02:16;;;;;;;10.00;6.80;;;;;;;;;;5091204;28;20031;-48
2022/03/02 13:05:12;;;;;;;17.05;7.93;;;;;;;;;;5091542;28;20383;-44
2022/03/02 13:08:03;;;;;;;15.48;6.60;;;;;;;;;;5090749;28;20028;-48
2022/03/02 13:10:28;;;;;;;;;;;;;;;;;;5086636;28;20152;-45
2022/03/02 13:12:56;;;;;;;12.63;8.48;;;;;;;;;;5088438;28;20375;-44
2022/03/02 13:15:31;;;;;;;12.05;7.13;;;;;;;;;;5090740;28;20500;-46
2022/03/02 13:18:11;;;;;;;11.63;6.32;;;;;;;;;;5090929;28;20110;-45
2022/03/02 13:20:41;;;;;;;;;;;;;;;;;;5091588;28;20028;-44
2022/03/02 13:23:20;;;;;;;14.00;7.47;;;;;;;;;;5091211;28;19918;-45
2022/03/02 13:25:58;;;;;;;12.15;7.65;;;;;;;;;;5090874;28;20476;-49
2022/03/02 13:28:35;;;;;;;15.35;7.65;;;;;;;;;;5091231;28;20036;-46
2022/03/02 13:31:12;;;;;;;10.73;6.80;;;;;;;;;;5090809;28;20035;-46
2022/03/02 13:33:56;;;;;;;14.05;7.40;;;;;;;;;;5089493;28;20484;-44
2022/03/02 13:36:53;;;;;;;12.57;7.70;;;;;;;;;;5090739;28;20418;-47
2022/03/02 13:39:20;;;;;;;12.35;7.25;;;;;;;;;;5090484;28;20027;-44
2022/03/02 13:41:48;;;;;;;18.67;7.88;;;;;;;;;;5090435;28;20028;-45
2022/03/02 13:44:38;;;;;;;22.05;12.07;;;;;;;;;;5089138;28;20020;-47
2022/03/02 13:47:15;;;;;;;16.10;9.05;;;;;;;;;;5089256;28;20384;-46
2022/03/02 13:49:50;;;;;;;12.63;7.22;;;;;;;;;;5091013;28;20024;-48
2022/03/02 13:52:28;;;;;;;14.45;7.85;;;;;;;;;;5093205;28;20494;-48
2022/03/02 13:55:03;;;;;;;14.93;9.00;;;;;;;;;;5094557;28;20430;-51
2022/03/02 13:57:32;;;;;;;14.38;7.70;;;;;;;;;;5091903;28;20027;-48
2022/03/02 14:00:19;;;;;;;14.57;8.27;;;;;;;;;;5094029;28;20475;-45
2022/03/02 14:02:50;;;;;;;20.83;7.15;;;;;;;;;;5091299;28;20471;-49
2022/03/02 14:05:17;;;;;;;13.88;7.75;;;;;;;;;;5093908;28;20106;-48
2022/03/02 14:07:44;;;;;;;23.55;7.65;;;;;;;;;;5093887;28;20513;-45
2022/03/02 14:10:12;;;;;;;11.55;6.90;;;;;;;;;;5093939;28;20023;-46
2022/03/02 14:12:50;;;;;;;15.68;7.40;;;;;;;;;;5094349;28;20387;-46
2022/03/02 14:15:16;;;;;;;14.05;7.40;;;;;;;;;;5094106;28;20395;-44
2022/03/02 14:17:41;;;;;;;14.98;7.43;;;;;;;;;;5094465;28;20046;-44
2022/03/02 14:20:08;;;;;;;15.00;8.05;;;;;;;;;;5094107;28;20056;-45
2022/03/02 14:22:33;;;;;;;15.63;8.50;;;;;;;;;;5093250;28;20028;-47
2022/03/02 14:24:59;;;;;;;12.45;8.00;;;;;;;;;;5094087;28;20031;-46
2022/03/02 14:27:29;;;;;;;12.18;7.18;;;;;;;;;;5094292;28;20562;-48
2022/03/02 14:29:57;;;;;;;;;;;;;;;;;;5094714;28;20016;-46
2022/03/02 14:32:40;;;;;;;12.90;7.28;;;;;;;;;;5094288;28;19923;-44
2022/03/02 14:35:07;;;;;;;14.93;8.77;;;;;;;;;;5091614;28;20039;-46
2022/03/02 14:37:47;;;;;;;15.68;8.40;;;;;;;;;;5093911;28;20074;-44
2022/03/02 14:40:17;;;;;;;;;;;;;;;;;;5094320;28;20495;-44
2022/03/02 14:42:46;;;;;;;16.30;8.30;;;;;;;;;;5093877;28;19908;-44